Time;durP1;ratioP1;P1;durP2;ratioP2;P2;SDS_P1;SDS_P2;PMS_P1;PMS_P2;Temp;Humidity;BMP_temperature;BMP_pressure;BME280_temperature;BME280_humidity;BME280_pressure;Samples;Min_cycle;Max_cycle;Signal;HPM_P1;HPM_P2
2021/06/25 00:01:06;;;;;;;22.40;15.70;;;16.40;64.30;;;;;;4980419;28;20210;-82
2021/06/25 00:03:31;;;;;;;21.73;16.00;;;16.50;64.10;;;;;;4996610;28;20203;-82
2021/06/25 00:05:57;;;;;;;20.30;14.90;;;16.40;64.20;;;;;;4981935;28;20426;-82
2021/06/25 00:08:23;;;;;;;32.10;17.07;;;16.50;64.20;;;;;;4996578;28;20450;-82
2021/06/25 00:10:49;;;;;;;26.07;15.10;;;16.50;64.40;;;;;;4980439;28;20203;-82
2021/06/25 00:13:14;;;;;;;24.80;16.87;;;16.50;64.40;;;;;;4980535;28;20198;-81
2021/06/25 00:15:40;;;;;;;24.00;16.57;;;16.50;64.40;;;;;;4981123;28;20792;-82
2021/06/25 00:18:08;;;;;;;27.27;14.93;;;16.40;64.50;;;;;;4981479;28;20182;-82
2021/06/25 00:20:34;;;;;;;21.60;15.20;;;16.30;64.80;;;;;;4980823;28;20190;-83
2021/06/25 00:22:59;;;;;;;25.27;17.40;;;16.50;64.90;;;;;;4980961;28;20183;-83
2021/06/25 00:25:26;;;;;;;20.70;15.10;;;16.60;64.20;;;;;;4981088;28;20555;-82
2021/06/25 00:27:52;;;;;;;21.55;14.93;;;16.60;63.80;;;;;;4981761;28;20183;-82
2021/06/25 00:30:18;;;;;;;24.90;16.05;;;16.60;63.70;;;;;;4992123;28;20262;-83
2021/06/25 00:32:45;;;;;;;23.73;15.98;;;16.60;63.80;;;;;;4983166;28;20310;-82
2021/06/25 00:35:11;;;;;;;22.60;14.10;;;16.50;63.70;;;;;;4980449;28;20278;-83
2021/06/25 00:37:37;;;;;;;17.40;13.20;;;16.50;63.80;;;;;;4979410;28;20213;-82
2021/06/25 00:40:05;;;;;;;23.10;14.93;;;16.40;64.00;;;;;;4979380;28;20202;-83
2021/06/25 00:42:31;;;;;;;29.08;17.40;;;16.20;65.20;;;;;;4978389;28;20692;-82
2021/06/25 00:44:57;;;;;;;26.70;15.47;;;16.30;64.70;;;;;;4979327;28;20187;-83
2021/06/25 00:47:22;;;;;;;26.27;16.03;;;16.40;64.90;;;;;;4999416;28;20178;-82
2021/06/25 00:49:48;;;;;;;24.13;16.10;;;16.40;65.00;;;;;;4993684;28;20274;-82
2021/06/25 00:52:17;;;;;;;24.03;15.47;;;16.40;65.00;;;;;;5002023;28;20722;-82
2021/06/25 00:54:43;;;;;;;26.73;17.70;;;16.30;65.50;;;;;;5001737;28;20213;-82
2021/06/25 00:57:09;;;;;;;25.27;15.90;;;16.30;65.80;;;;;;5000620;28;20183;-82
2021/06/25 00:59:35;;;;;;;20.27;15.07;;;16.30;65.80;;;;;;5001863;28;20418;-82
2021/06/25 01:02:01;;;;;;;27.13;17.20;;;16.30;65.70;;;;;;5000791;28;20214;-83
2021/06/25 01:04:26;;;;;;;23.10;16.07;;;16.30;66.00;;;;;;5001218;28;20810;-84
2021/06/25 01:06:52;;;;;;;25.97;16.93;;;16.20;66.20;;;;;;5001400;28;20203;-82
2021/06/25 01:09:21;;;;;;;21.30;14.87;;;16.30;66.40;;;;;;5001713;28;20206;-83
2021/06/25 01:11:47;;;;;;;26.85;18.20;;;16.30;66.40;;;;;;5001103;28;20529;-83
2021/06/25 01:14:12;;;;;;;21.20;15.73;;;16.30;66.50;;;;;;5017188;28;20629;-82
2021/06/25 01:16:39;;;;;;;25.33;18.03;;;16.50;66.50;;;;;;4999684;28;20265;-82
2021/06/25 01:19:12;;;;;;;27.73;17.67;;;16.40;66.40;;;;;;5016685;28;20304;-81
2021/06/25 01:21:38;;;;;;;33.70;17.30;;;16.40;66.70;;;;;;5000384;28;20206;-82
2021/06/25 01:24:04;;;;;;;28.57;18.33;;;16.20;67.20;;;;;;5000266;28;20183;-81
2021/06/25 01:26:30;;;;;;;30.33;20.17;;;16.20;68.00;;;;;;5000406;28;20280;-82
2021/06/25 01:28:55;;;;;;;35.73;21.60;;;16.30;68.20;;;;;;4999894;28;20418;-82
2021/06/25 01:31:21;;;;;;;24.13;17.63;;;16.30;68.10;;;;;;4998693;28;20261;-82
2021/06/25 01:33:48;;;;;;;26.03;18.77;;;16.30;68.30;;;;;;5002105;28;20210;-82
2021/06/25 01:36:15;;;;;;;27.60;18.17;;;16.20;68.40;;;;;;5003983;28;20175;-81
2021/06/25 01:38:42;;;;;;;36.63;18.77;;;16.20;68.70;;;;;;5000668;28;20557;-82
2021/06/25 01:41:08;;;;;;;28.08;19.13;;;16.20;68.90;;;;;;5000044;28;20226;-82
2021/06/25 01:43:37;;;;;;;32.80;19.00;;;16.30;69.00;;;;;;4999889;28;20537;-82
2021/06/25 01:46:05;;;;;;;37.75;19.80;;;16.20;68.90;;;;;;4999954;28;20415;-82
2021/06/25 01:48:31;;;;;;;32.60;19.98;;;16.30;68.90;;;;;;4999873;28;20548;-82
2021/06/25 01:50:56;;;;;;;36.30;18.57;;;16.40;68.90;;;;;;5015940;28;20294;-82
2021/06/25 01:53:24;;;;;;;33.33;19.50;;;16.20;69.00;;;;;;5000041;28;20298;-82
2021/06/25 01:55:50;;;;;;;36.88;19.38;;;16.00;69.80;;;;;;5002976;28;20179;-82
2021/06/25 01:58:26;;;;;;;36.72;20.63;;;16.10;70.30;;;;;;5002855;28;20175;-82
2021/06/25 02:01:13;;;;;;;32.80;19.20;;;16.00;70.50;;;;;;4999691;28;20241;-83
2021/06/25 02:03:40;;;;;;;33.67;20.88;;;15.90;70.80;;;;;;5001068;28;20178;-82
2021/06/25 02:06:07;;;;;;;28.35;18.75;;;15.90;71.40;;;;;;4999638;28;20274;-82
2021/06/25 02:08:34;;;;;;;33.42;21.63;;;16.00;71.20;;;;;;4999316;28;20187;-82
2021/06/25 02:11:00;;;;;;;38.55;21.65;;;16.00;71.10;;;;;;4998905;28;20207;-82
2021/06/25 02:13:26;;;;;;;36.70;23.17;;;16.30;71.10;;;;;;4999100;28;20210;-82
2021/06/25 02:15:52;;;;;;;35.50;20.83;;;16.20;70.90;;;;;;4999294;28;20175;-81
2021/06/25 02:18:18;;;;;;;42.72;22.50;;;16.20;71.80;;;;;;5000987;28;20413;-82
2021/06/25 02:20:44;;;;;;;33.43;21.07;;;16.10;71.20;;;;;;5000908;28;20614;-82
2021/06/25 02:23:10;;;;;;;38.08;23.40;;;16.10;71.30;;;;;;5000257;28;20194;-82
2021/06/25 02:25:36;;;;;;;37.63;21.90;;;16.10;71.40;;;;;;4999928;28;20187;-82
2021/06/25 02:28:02;;;;;;;37.73;22.00;;;16.10;71.40;;;;;;5000106;28;20422;-82
2021/06/25 02:30:28;;;;;;;36.55;22.02;;;16.00;71.30;;;;;;4999440;28;20209;-82
2021/06/25 02:32:53;;;;;;;36.73;22.60;;;16.10;71.40;;;;;;4999116;28;20297;-82
2021/06/25 02:35:19;;;;;;;46.33;22.00;;;16.10;71.20;;;;;;4999417;28;20594;-82
2021/06/25 02:37:45;;;;;;;34.77;22.43;;;16.00;71.40;;;;;;5003034;28;20175;-82
2021/06/25 02:40:13;;;;;;;31.97;20.63;;;16.00;71.40;;;;;;5006134;28;20547;-82
2021/06/25 02:42:39;;;;;;;35.13;19.98;;;15.90;71.60;;;;;;5000749;28;20874;-83
2021/06/25 02:45:06;;;;;;;36.03;20.52;;;16.00;71.70;;;;;;5000100;28;20190;-82
2021/06/25 02:47:34;;;;;;;37.72;23.05;;;16.00;71.40;;;;;;4999574;28;20187;-82
2021/06/25 02:50:00;;;;;;;33.72;21.48;;;16.20;70.90;;;;;;5001781;28;20191;-82
2021/06/25 02:52:26;;;;;;;32.88;19.80;;;16.30;71.00;;;;;;4986294;28;20224;-82
2021/06/25 02:54:52;;;;;;;28.30;18.10;;;16.30;69.80;;;;;;5003396;28;20181;-83
2021/06/25 02:57:18;;;;;;;31.37;19.90;;;16.40;69.20;;;;;;5001883;28;20171;-82
2021/06/25 02:59:43;;;;;;;35.57;20.83;;;16.60;68.40;;;;;;5001358;28;20429;-81
2021/06/25 03:02:09;;;;;;;27.67;17.90;;;16.60;68.00;;;;;;4983420;28;20242;-82
2021/06/25 03:04:35;;;;;;;28.40;19.27;;;16.60;67.70;;;;;;4984379;28;20246;-82
2021/06/25 03:07:02;;;;;;;26.97;17.90;;;16.50;67.50;;;;;;4987588;28;20207;-82
2021/06/25 03:09:27;;;;;;;24.98;18.08;;;16.50;67.50;;;;;;4989189;28;20431;-83
2021/06/25 03:11:53;;;;;;;28.80;18.77;;;16.60;67.20;;;;;;5008245;28;20183;-82
2021/06/25 03:14:19;;;;;;;29.10;16.77;;;16.50;67.10;;;;;;4989043;28;20186;-83
2021/06/25 03:16:44;;;;;;;28.97;18.33;;;16.60;66.30;;;;;;4989979;28;20186;-83
2021/06/25 03:19:10;;;;;;;24.53;17.17;;;16.80;65.80;;;;;;4992727;28;20662;-83
2021/06/25 03:21:36;;;;;;;25.70;16.60;;;16.70;65.50;;;;;;4991964;28;20268;-82
2021/06/25 03:24:02;;;;;;;24.70;17.60;;;16.80;65.40;;;;;;4990950;28;20431;-83
2021/06/25 03:26:28;;;;;;;29.63;17.38;;;16.70;65.40;;;;;;4989884;28;20210;-83
2021/06/25 03:28:54;;;;;;;23.43;16.93;;;16.80;65.20;;;;;;4986629;28;20191;-82
2021/06/25 03:31:22;;;;;;;24.50;17.23;;;16.60;65.50;;;;;;4985330;28;20655;-82
2021/06/25 03:33:48;;;;;;;27.60;17.38;;;16.70;65.60;;;;;;4982208;28;20199;-82
2021/06/25 03:36:14;;;;;;;19.25;15.60;;;16.80;65.20;;;;;;4985148;28;20252;-82
2021/06/25 03:38:41;;;;;;;24.30;16.17;;;16.80;64.80;;;;;;5002319;28;20194;-82
2021/06/25 03:41:06;;;;;;;22.10;16.58;;;16.80;64.80;;;;;;4981283;28;20238;-83
2021/06/25 03:43:32;;;;;;;24.97;15.93;;;16.70;64.80;;;;;;4991362;28;20210;-81
2021/06/25 03:45:59;;;;;;;19.33;14.10;;;16.80;64.70;;;;;;4987277;28;20265;-82
2021/06/25 03:48:25;;;;;;;20.25;14.38;;;16.80;64.50;;;;;;4986270;28;20264;-82
2021/06/25 03:50:51;;;;;;;24.90;14.00;;;16.90;64.30;;;;;;5014919;28;20210;-82
2021/06/25 03:53:17;;;;;;;27.00;14.20;;;16.80;64.10;;;;;;4982721;28;20553;-82
2021/06/25 03:58:28;;;;;;;23.25;15.20;;;16.70;64.60;;;;;;4999666;28;20210;-82
2021/06/25 04:00:54;;;;;;;18.38;13.15;;;16.80;64.60;;;;;;4998215;28;20195;-82
2021/06/25 04:03:19;;;;;;;24.53;15.43;;;16.90;64.20;;;;;;4980476;28;20203;-82
2021/06/25 04:05:45;;;;;;;19.60;14.57;;;16.90;63.80;;;;;;4980451;28;20642;-83
2021/06/25 04:08:11;;;;;;;25.77;14.30;;;17.00;63.50;;;;;;4980546;28;20183;-82
2021/06/25 04:10:37;;;;;;;22.97;14.20;;;17.00;63.40;;;;;;4979585;28;20456;-83
2021/06/25 04:13:03;;;;;;;23.63;14.67;;;17.00;63.40;;;;;;4980434;28;20195;-82
2021/06/25 04:15:29;;;;;;;22.00;14.52;;;17.10;63.30;;;;;;4998414;28;20202;-82
2021/06/25 04:17:54;;;;;;;22.83;15.30;;;17.10;63.30;;;;;;4980710;28;20175;-82
2021/06/25 04:20:20;;;;;;;20.50;13.80;;;17.10;63.20;;;;;;4997604;28;20520;-83
2021/06/25 04:22:46;;;;;;;21.05;14.63;;;17.10;63.20;;;;;;4980299;28;20202;-82
2021/06/25 04:25:12;;;;;;;26.57;14.60;;;17.10;63.30;;;;;;4980160;28;20539;-81
2021/06/25 04:27:38;;;;;;;24.30;16.87;;;17.10;63.30;;;;;;4998279;28;20179;-83
2021/06/25 04:30:05;;;;;;;19.13;14.20;;;17.00;63.20;;;;;;4980101;28;20469;-82
2021/06/25 04:32:32;;;;;;;23.25;15.23;;;17.00;63.30;;;;;;4979866;28;20207;-82
2021/06/25 04:34:58;;;;;;;23.30;13.15;;;17.00;63.30;;;;;;4979476;28;20580;-82
2021/06/25 04:37:23;;;;;;;28.43;13.43;;;17.10;63.40;;;;;;4980949;28;20210;-82
2021/06/25 04:39:49;;;;;;;18.27;13.00;;;17.00;63.50;;;;;;4997853;28;20178;-83
2021/06/25 04:42:15;;;;;;;26.33;14.57;;;17.10;63.80;;;;;;4983597;28;20261;-82
2021/06/25 04:44:40;;;;;;;23.87;14.90;;;16.90;63.40;;;;;;4981999;28;20206;-83
2021/06/25 04:47:07;;;;;;;21.43;14.30;;;17.00;63.40;;;;;;4983321;28;20422;-83
2021/06/25 04:49:40;;;;;;;19.33;12.93;;;17.00;63.60;;;;;;4987511;28;20183;-82
2021/06/25 04:52:07;;;;;;;20.15;13.52;;;17.00;63.70;;;;;;4980527;28;20210;-81
2021/06/25 04:54:33;;;;;;;18.63;13.50;;;17.20;63.80;;;;;;4998199;28;20174;-82
2021/06/25 04:56:59;;;;;;;24.98;14.00;;;17.30;63.30;;;;;;4980111;28;20187;-83
2021/06/25 04:59:26;;;;;;;23.50;13.82;;;17.40;63.00;;;;;;4980493;28;20239;-83
2021/06/25 05:01:52;;;;;;;22.50;15.60;;;17.40;63.00;;;;;;4980746;28;20234;-84
2021/06/25 05:04:18;;;;;;;20.73;13.50;;;17.30;63.10;;;;;;4997895;28;20179;-83
2021/06/25 05:06:46;;;;;;;21.52;14.13;;;17.30;63.20;;;;;;4982751;28;20178;-82
2021/06/25 05:09:13;;;;;;;20.05;14.95;;;17.40;62.70;;;;;;4981535;28;20261;-83
2021/06/25 05:11:38;;;;;;;19.15;14.70;;;17.40;62.50;;;;;;4998415;28;20655;-83
2021/06/25 05:14:04;;;;;;;15.90;12.90;;;17.40;62.70;;;;;;4981799;28;20214;-82
2021/06/25 05:16:30;;;;;;;22.53;14.03;;;17.20;62.90;;;;;;4998368;28;20176;-82
2021/06/25 05:18:55;;;;;;;19.53;12.90;;;17.30;63.20;;;;;;4998585;28;20701;-82
2021/06/25 05:21:21;;;;;;;19.93;13.20;;;17.10;63.00;;;;;;4981157;28;20971;-82
2021/06/25 05:23:47;;;;;;;24.20;15.23;;;17.30;63.50;;;;;;4981659;28;20185;-82
2021/06/25 05:26:13;;;;;;;18.15;12.52;;;17.50;63.10;;;;;;4997744;28;20183;-82
2021/06/25 05:28:39;;;;;;;24.63;15.90;;;17.40;63.50;;;;;;4982295;28;20342;-82
2021/06/25 05:31:05;;;;;;;17.70;12.27;;;17.60;63.60;;;;;;4981405;28;20783;-83
2021/06/25 05:33:31;;;;;;;19.00;12.52;;;17.60;63.30;;;;;;4981618;28;20454;-82
2021/06/25 05:35:57;;;;;;;18.87;13.67;;;17.80;63.00;;;;;;4998714;28;20503;-83
2021/06/25 05:38:23;;;;;;;21.87;13.90;;;18.00;62.40;;;;;;4981278;28;20410;-82
2021/06/25 05:40:48;;;;;;;20.97;12.70;;;18.20;61.60;;;;;;4997178;28;20198;-82
2021/06/25 05:43:14;;;;;;;17.67;11.87;;;18.30;61.40;;;;;;5001312;28;20174;-82
2021/06/25 05:45:42;;;;;;;18.48;11.90;;;18.50;61.30;;;;;;5002095;28;20186;-83
2021/06/25 05:48:08;;;;;;;27.40;12.65;;;18.70;60.70;;;;;;5004540;28;20209;-82
2021/06/25 05:50:35;;;;;;;16.05;11.13;;;19.00;60.00;;;;;;5007478;28;20187;-82
2021/06/25 05:53:01;;;;;;;17.92;11.52;;;19.30;59.40;;;;;;5009688;28;20202;-82
2021/06/25 05:55:27;;;;;;;16.17;11.27;;;19.50;58.30;;;;;;5004703;28;20186;-82
2021/06/25 05:57:52;;;;;;;14.27;10.47;;;19.70;57.30;;;;;;5006962;28;20178;-82
2021/06/25 06:00:19;;;;;;;16.80;10.57;;;19.70;56.90;;;;;;5021044;28;20166;-85
2021/06/25 06:02:45;;;;;;;17.48;10.73;;;19.70;57.50;;;;;;5002969;28;20229;-84
2021/06/25 06:05:12;;;;;;;14.48;10.38;;;19.80;57.70;;;;;;5006119;28;20264;-84
2021/06/25 06:07:38;;;;;;;18.45;12.50;;;19.90;57.60;;;;;;5006014;28;20179;-84
2021/06/25 06:10:05;;;;;;;20.95;12.20;;;20.00;57.20;;;;;;5005482;28;20187;-84
2021/06/25 06:12:31;;;;;;;17.35;10.38;;;20.00;57.10;;;;;;5004853;28;20225;-83
2021/06/25 06:14:57;;;;;;;12.07;10.03;;;20.00;57.20;;;;;;5004960;28;20174;-83
2021/06/25 06:17:22;;;;;;;13.33;9.70;;;19.80;57.70;;;;;;5020883;28;20434;-84
2021/06/25 06:19:53;;;;;;;25.67;12.20;;;19.90;58.80;;;;;;4987342;28;20191;-82
2021/06/25 06:33:29;;;;;;;17.77;8.40;;;20.40;57.40;;;;;;5004239;28;20314;-85
2021/06/25 06:35:55;;;;;;;12.68;9.10;;;20.70;56.90;;;;;;4985519;28;20164;-83
2021/06/25 06:38:21;;;;;;;15.50;9.80;;;20.70;56.20;;;;;;5001954;28;20632;-82
2021/06/25 06:40:47;;;;;;;11.97;7.97;;;20.90;56.50;;;;;;5001483;28;20187;-83
2021/06/25 06:43:12;;;;;;;14.47;8.60;;;21.10;55.70;;;;;;4984044;28;20215;-83
2021/06/25 06:45:38;;;;;;;11.00;8.00;;;21.30;55.40;;;;;;4988220;28;20201;-81
2021/06/25 06:48:05;;;;;;;12.03;9.40;;;21.20;55.10;;;;;;5021537;28;20182;-83
2021/06/25 06:50:31;;;;;;;13.93;8.80;;;21.20;55.10;;;;;;4983558;28;20525;-83
2021/06/25 06:52:56;;;;;;;17.93;9.10;;;21.50;55.10;;;;;;5001817;28;20566;-82
2021/06/25 06:55:23;;;;;;;15.83;8.00;;;21.40;54.20;;;;;;5000548;28;20985;-83
2021/06/25 06:57:49;;;;;;;14.57;8.10;;;21.70;53.90;;;;;;4987830;28;20254;-82
2021/06/25 07:00:16;;;;;;;11.53;8.47;;;22.30;52.80;;;;;;4984093;28;20508;-85
2021/06/25 07:02:42;;;;;;;10.07;8.13;;;22.90;51.40;;;;;;4983413;28;20495;-85
2021/06/25 07:05:10;;;;;;;14.10;7.97;;;23.40;49.00;;;;;;4983781;28;20465;-85
2021/06/25 07:07:36;;;;;;;8.70;7.30;;;23.60;48.20;;;;;;4983193;28;20918;-83
2021/06/25 07:10:04;;;;;;;9.60;7.87;;;24.20;47.40;;;;;;4982945;28;20427;-83
2021/06/25 07:12:30;;;;;;;11.40;8.43;;;24.60;46.80;;;;;;4981519;28;21048;-83
2021/06/25 07:14:55;;;;;;;12.07;7.43;;;25.10;45.60;;;;;;4984196;28;20496;-83
2021/06/25 07:17:21;;;;;;;10.20;8.07;;;25.70;43.80;;;;;;4983167;28;20941;-83
2021/06/25 07:19:48;;;;;;;8.73;6.63;;;26.40;43.00;;;;;;4982910;28;20191;-83
2021/06/25 07:22:14;;;;;;;11.10;7.77;;;26.70;40.60;;;;;;4981813;28;20191;-83
2021/06/25 07:24:40;;;;;;;9.40;8.03;;;26.80;39.70;;;;;;4983027;28;20495;-83
2021/06/25 07:27:07;;;;;;;14.80;7.77;;;26.80;40.50;;;;;;4983283;28;20414;-83
2021/06/25 07:29:33;;;;;;;8.87;7.63;;;26.60;40.70;;;;;;4982347;28;20480;-83
2021/06/25 07:31:58;;;;;;;9.30;6.60;;;26.10;40.20;;;;;;5000080;28;20435;-83
2021/06/25 07:34:25;;;;;;;10.77;6.60;;;25.40;41.50;;;;;;4983992;28;20468;-83
2021/06/25 07:36:51;;;;;;;9.57;6.00;;;25.40;42.90;;;;;;4982945;28;20587;-83
2021/06/25 07:39:16;;;;;;;12.37;7.10;;;25.30;43.30;;;;;;4981975;28;20441;-82
2021/06/25 07:41:42;;;;;;;11.67;7.97;;;25.10;43.70;;;;;;4982057;28;20339;-82
2021/06/25 07:44:08;;;;;;;10.07;7.50;;;25.10;44.10;;;;;;4982147;28;20175;-82
2021/06/25 07:46:34;;;;;;;9.60;6.30;;;24.80;44.90;;;;;;4982291;28;20426;-83
2021/06/25 07:49:00;;;;;;;12.27;7.60;;;24.60;45.80;;;;;;4981721;28;20210;-83
2021/06/25 07:51:26;;;;;;;9.60;6.70;;;24.40;46.70;;;;;;5000005;28;20202;-83
2021/06/25 07:53:53;;;;;;;8.97;8.03;;;24.00;47.10;;;;;;4981910;28;20207;-82
2021/06/25 07:56:19;;;;;;;11.77;7.77;;;23.80;48.20;;;;;;4982857;28;20241;-83
2021/06/25 07:58:45;;;;;;;9.50;7.27;;;23.90;48.60;;;;;;4999021;28;20506;-83
2021/06/25 08:01:11;;;;;;;15.63;7.13;;;24.00;47.90;;;;;;4981810;28;20466;-83
2021/06/25 08:03:36;;;;;;;8.83;6.90;;;24.00;48.50;;;;;;4991781;28;20560;-82
2021/06/25 08:06:02;;;;;;;11.77;7.47;;;24.00;48.70;;;;;;5000492;28;20909;-82
2021/06/25 08:08:28;;;;;;;13.60;6.63;;;24.20;48.90;;;;;;4980559;28;20194;-83
2021/06/25 08:10:54;;;;;;;8.73;7.30;;;24.20;47.90;;;;;;4979251;28;20968;-82
2021/06/25 08:13:20;;;;;;;9.90;7.50;;;24.20;47.60;;;;;;4999634;28;20222;-82
2021/06/25 08:15:49;;;;;;;11.97;7.47;;;24.30;48.20;;;;;;4998762;28;20771;-83
2021/06/25 08:18:16;;;;;;;9.40;6.93;;;24.20;48.60;;;;;;4989276;28;20193;-83
2021/06/25 08:20:43;;;;;;;11.17;7.57;;;24.20;48.70;;;;;;4999729;28;20601;-84
2021/06/25 08:23:09;;;;;;;9.50;6.87;;;23.90;48.50;;;;;;4980549;28;20429;-84
2021/06/25 08:25:35;;;;;;;12.00;6.90;;;24.00;49.20;;;;;;4997255;28;20415;-84
2021/06/25 08:28:01;;;;;;;13.00;7.27;;;24.00;49.30;;;;;;4980089;28;20948;-85
2021/06/25 08:30:27;;;;;;;10.57;7.40;;;23.80;49.70;;;;;;4997485;28;20224;-84
2021/06/25 08:32:53;;;;;;;13.73;7.80;;;23.70;50.50;;;;;;4980476;28;20211;-83
2021/06/25 08:35:21;;;;;;;11.43;7.50;;;23.50;50.50;;;;;;4982731;28;20171;-83
2021/06/25 08:37:48;;;;;;;9.73;7.23;;;23.70;51.30;;;;;;4982214;28;20418;-84
2021/06/25 08:40:14;;;;;;;12.23;7.43;;;23.70;50.50;;;;;;4983175;28;20410;-82
2021/06/25 08:42:40;;;;;;;9.30;6.43;;;23.50;50.70;;;;;;4982480;28;20895;-82
2021/06/25 08:45:08;;;;;;;9.40;6.43;;;23.40;51.40;;;;;;4982921;28;20492;-82
2021/06/25 08:48:01;;;;;;;12.20;8.03;;;23.70;51.40;;;;;;4982684;28;20431;-82
2021/06/25 08:50:28;;;;;;;12.10;7.70;;;24.00;50.90;;;;;;4979204;28;20509;-83
2021/06/25 08:52:54;;;;;;;10.90;7.20;;;24.00;50.40;;;;;;4981887;28;20461;-83
2021/06/25 08:55:22;;;;;;;9.23;7.40;;;24.10;50.20;;;;;;4982350;28;20424;-83
2021/06/25 08:57:48;;;;;;;9.80;7.37;;;23.70;50.50;;;;;;4983387;28;20434;-83
2021/06/25 09:00:16;;;;;;;9.20;7.20;;;23.80;51.00;;;;;;4999524;28;20421;-83
2021/06/25 09:02:42;;;;;;;11.93;6.83;;;23.80;51.10;;;;;;4981555;28;20458;-83
2021/06/25 09:05:21;;;;;;;13.23;9.10;;;23.90;51.30;;;;;;4981884;28;20525;-83
2021/06/25 09:07:47;;;;;;;7.63;6.47;;;23.90;51.50;;;;;;5004904;28;20399;-83
2021/06/25 09:10:14;;;;;;;8.73;5.60;;;24.00;51.10;;;;;;4985137;28;20500;-83
2021/06/25 09:12:55;;;;;;;8.90;6.40;;;23.50;52.10;;;;;;4982310;28;20972;-82
2021/06/25 09:15:21;;;;;;;9.20;6.73;;;23.50;53.00;;;;;;4982288;28;20418;-83
2021/06/25 09:17:58;;;;;;;9.67;6.93;;;23.50;53.40;;;;;;4982060;28;20426;-82
2021/06/25 09:20:45;;;;;;;9.50;6.40;;;23.10;52.50;;;;;;4983074;28;20182;-83
2021/06/25 09:23:33;;;;;;;9.67;6.47;;;23.20;53.20;;;;;;4985345;28;20810;-83
2021/06/25 09:26:06;;;;;;;8.07;6.30;;;23.30;52.30;;;;;;4985019;28;20521;-83
2021/06/25 09:28:40;;;;;;;10.03;6.77;;;23.20;52.30;;;;;;5003352;28;20525;-83
2021/06/25 09:31:15;;;;;;;14.07;9.13;;;23.00;52.20;;;;;;4985087;28;20524;-83
2021/06/25 09:33:49;;;;;;;10.30;6.67;;;22.80;52.50;;;;;;4984821;28;20481;-83
2021/06/25 09:36:26;;;;;;;11.63;7.97;;;22.60;53.10;;;;;;4986155;28;20409;-83
2021/06/25 09:39:03;;;;;;;7.87;6.70;;;22.60;53.10;;;;;;4986891;28;20418;-84
2021/06/25 09:41:29;;;;;;;12.37;7.20;;;22.60;52.80;;;;;;4986018;28;20449;-83
2021/06/25 09:43:57;;;;;;;9.63;7.60;;;22.50;53.40;;;;;;4986599;28;20418;-84
2021/06/25 09:46:37;;;;;;;8.50;7.37;;;22.50;52.50;;;;;;4986792;28;20410;-83
2021/06/25 09:49:06;;;;;;;8.63;7.10;;;22.50;52.30;;;;;;4987121;28;20428;-83
2021/06/25 09:51:32;;;;;;;10.27;6.80;;;22.50;52.70;;;;;;4986737;28;20442;-83
2021/06/25 09:54:13;;;;;;;12.70;7.30;;;22.60;52.80;;;;;;4985736;28;20489;-83
2021/06/25 09:56:45;;;;;;;14.47;7.23;;;22.70;53.20;;;;;;4984847;28;20418;-83
2021/06/25 10:02:26;;;;;;;10.67;8.10;;;22.90;53.60;;;;;;4970506;28;20452;-83
2021/06/25 10:05:10;;;;;;;13.10;7.57;;;23.10;53.30;;;;;;4967152;28;20509;-83
2021/06/25 10:07:36;;;;;;;10.00;8.13;;;23.40;52.50;;;;;;4984399;28;20850;-83
2021/06/25 10:10:09;;;;;;;9.27;7.17;;;23.40;51.80;;;;;;4985043;28;20419;-83
2021/06/25 10:12:45;;;;;;;10.93;8.23;;;23.70;51.70;;;;;;4988836;28;20214;-84
2021/06/25 10:15:12;;;;;;;9.67;7.83;;;23.80;51.50;;;;;;4991358;28;21015;-83
2021/06/25 10:17:38;;;;;;;12.60;7.93;;;23.60;50.70;;;;;;4987144;28;20418;-85
2021/06/25 10:20:12;;;;;;;12.43;9.00;;;23.60;51.60;;;;;;4986611;28;20519;-83
2021/06/25 10:22:42;;;;;;;9.87;8.00;;;23.40;51.80;;;;;;4986559;28;20543;-83
2021/06/25 10:25:09;;;;;;;14.80;9.87;;;23.30;52.10;;;;;;4985096;28;20430;-83
2021/06/25 10:27:35;;;;;;;10.87;8.37;;;23.20;52.30;;;;;;4984013;28;20438;-83
2021/06/25 10:30:04;;;;;;;14.27;7.90;;;23.00;52.90;;;;;;4984028;28;20453;-83
2021/06/25 10:32:30;;;;;;;11.77;7.50;;;23.20;52.90;;;;;;4999725;28;20836;-83
2021/06/25 10:34:56;;;;;;;11.07;7.40;;;23.30;52.60;;;;;;5002209;28;20406;-84
2021/06/25 10:37:28;;;;;;;9.80;6.60;;;23.40;52.60;;;;;;4985220;28;20415;-84
2021/06/25 10:39:54;;;;;;;9.87;6.80;;;23.40;51.70;;;;;;4986820;28;20409;-83
2021/06/25 10:42:20;;;;;;;8.40;6.87;;;23.50;51.70;;;;;;4985325;28;20487;-83
2021/06/25 10:44:54;;;;;;;9.20;7.47;;;23.40;51.90;;;;;;4984429;28;20416;-84
2021/06/25 10:47:27;;;;;;;8.23;6.80;;;23.50;51.50;;;;;;4985062;28;20423;-83
2021/06/25 10:49:58;;;;;;;13.03;7.60;;;23.50;51.10;;;;;;4985417;28;20449;-82
2021/06/25 10:52:25;;;;;;;14.20;7.23;;;23.30;50.00;;;;;;5003573;28;20454;-83
2021/06/25 10:55:01;;;;;;;7.90;6.60;;;23.10;49.80;;;;;;4986526;28;20435;-84
2021/06/25 10:57:29;;;;;;;12.63;6.20;;;23.00;50.60;;;;;;4987688;28;20441;-84
2021/06/25 10:59:54;;;;;;;10.87;7.20;;;22.70;51.10;;;;;;4985846;28;20438;-83
2021/06/25 11:02:43;;;;;;;7.17;6.43;;;22.60;51.60;;;;;;4983845;28;20477;-83
2021/06/25 11:05:27;;;;;;;8.80;6.30;;;22.60;51.00;;;;;;4984949;28;20203;-83
2021/06/25 11:07:54;;;;;;;9.10;7.20;;;22.60;52.10;;;;;;4984878;28;20446;-83
2021/06/25 11:10:21;;;;;;;8.73;7.10;;;22.70;52.20;;;;;;5000056;28;20513;-83
2021/06/25 11:12:47;;;;;;;12.90;7.70;;;22.80;51.70;;;;;;4984666;28;20462;-84
2021/06/25 11:15:13;;;;;;;6.90;5.97;;;22.90;51.10;;;;;;5003712;28;20410;-83
2021/06/25 11:17:54;;;;;;;7.77;6.30;;;23.20;51.30;;;;;;4987655;28;20326;-83
2021/06/25 11:20:30;;;;;;;13.00;6.83;;;23.50;50.50;;;;;;4991238;28;20171;-84
2021/06/25 11:23:05;;;;;;;15.30;7.30;;;23.90;50.00;;;;;;4985038;28;20504;-83
2021/06/25 11:25:41;;;;;;;13.60;7.60;;;24.20;49.30;;;;;;4984465;28;20429;-82
2021/06/25 11:28:16;;;;;;;8.80;6.50;;;24.30;48.90;;;;;;4984452;28;20414;-83
2021/06/25 11:30:52;;;;;;;8.63;7.40;;;24.40;47.40;;;;;;4983511;28;20981;-83
2021/06/25 11:33:48;;;;;;;9.30;6.77;;;24.60;47.20;;;;;;4984468;28;20464;-83
2021/06/25 11:36:16;;;;;;;8.30;6.60;;;24.60;45.70;;;;;;4984284;28;20415;-83
2021/06/25 11:39:10;;;;;;;10.10;6.43;;;24.70;45.30;;;;;;4984118;28;20909;-83
2021/06/25 11:41:47;;;;;;;8.60;5.37;;;24.90;45.50;;;;;;5000282;28;20430;-83
2021/06/25 11:44:23;;;;;;;8.73;6.80;;;25.10;45.10;;;;;;4984801;28;20498;-85
2021/06/25 11:47:01;;;;;;;11.40;7.17;;;25.00;45.90;;;;;;4986137;28;20429;-84
2021/06/25 11:49:39;;;;;;;11.10;7.57;;;24.70;46.10;;;;;;4987810;28;20430;-82
2021/06/25 11:52:11;;;;;;;14.27;7.43;;;24.20;46.70;;;;;;4985959;28;20450;-82
2021/06/25 11:54:37;;;;;;;8.17;6.90;;;23.90;48.00;;;;;;5003982;28;20454;-82
2021/06/25 11:57:04;;;;;;;12.30;7.47;;;23.60;48.90;;;;;;4986353;28;20445;-82
2021/06/25 11:59:30;;;;;;;13.83;7.57;;;23.10;50.20;;;;;;5004654;28;20928;-82
2021/06/25 12:02:02;;;;;;;12.33;7.43;;;22.90;51.30;;;;;;4983460;28;20571;-82
2021/06/25 12:04:41;;;;;;;9.50;7.43;;;22.80;52.20;;;;;;5000016;28;20422;-82
2021/06/25 12:07:12;;;;;;;10.60;8.10;;;22.60;53.00;;;;;;4983737;28;20505;-82
2021/06/25 12:09:46;;;;;;;10.93;7.17;;;22.40;53.70;;;;;;5001525;28;20390;-81
2021/06/25 12:12:24;;;;;;;14.80;8.30;;;22.50;54.30;;;;;;4982970;28;20433;-82
2021/06/25 12:14:56;;;;;;;9.33;7.47;;;22.30;54.70;;;;;;4983939;28;20402;-82
2021/06/25 12:17:24;;;;;;;10.43;7.10;;;22.30;55.10;;;;;;4983200;28;20479;-82
2021/06/25 12:19:59;;;;;;;10.23;7.23;;;22.20;54.40;;;;;;4984456;28;20874;-83
2021/06/25 12:22:25;;;;;;;13.77;7.10;;;22.20;55.00;;;;;;4984571;28;20434;-83
2021/06/25 12:24:54;;;;;;;15.03;9.13;;;22.30;54.90;;;;;;4988360;28;20414;-82
2021/06/25 12:27:37;;;;;;;27.33;9.67;;;21.90;54.70;;;;;;4982304;28;20910;-83
2021/06/25 12:30:09;;;;;;;28.83;8.90;;;21.30;56.60;;;;;;5000178;28;20395;-84
2021/06/25 12:32:35;;;;;;;15.13;9.47;;;20.80;58.10;;;;;;4999748;28;20461;-84
2021/06/25 12:35:04;;;;;;;11.80;8.83;;;21.20;58.60;;;;;;4982450;28;20429;-83
2021/06/25 12:37:50;;;;;;;11.37;8.50;;;21.30;58.30;;;;;;4980432;28;21011;-83
2021/06/25 12:40:49;;;;;;;16.63;9.27;;;21.50;57.90;;;;;;4983198;28;20428;-85
2021/06/25 12:43:31;;;;;;;27.70;10.10;;;21.70;57.50;;;;;;4983237;28;20549;-82
2021/06/25 12:46:16;;;;;;;20.73;9.70;;;21.60;56.70;;;;;;5000116;28;20900;-82
2021/06/25 12:48:48;;;;;;;15.10;10.17;;;21.50;57.10;;;;;;4982494;28;20426;-83
2021/06/25 12:51:34;;;;;;;16.80;9.63;;;21.80;56.80;;;;;;4981327;28;20430;-83
2021/06/25 12:54:00;;;;;;;14.37;8.90;;;22.10;56.50;;;;;;4981050;28;20537;-83
2021/06/25 12:56:31;;;;;;;10.03;7.70;;;22.20;55.10;;;;;;4985535;28;20750;-82